Bei Facebook empfehlenBei Twitter postenGoogle plusPinterest

Das Wetter im Erzgebirge am 20.12.2014

Wetter und Klima am 20.12.2014 Holzhau im Erzgebirge (630m ü.NN)
Letzte gemessene Temperatur und Uhrzeit der Messung23:45:00 Uhr0.20 °C
Temperatur (Maximum / Höchstwert) und Uhrzeit der Messung12:15:00 Uhr2.60 °C
Temperatur (Minimum / Tiefstwert) und Uhrzeit der Messung20:45:000.10 °C
Errechneter Absolutwert der Temperaturschwankungen zwischen Tmin und Tmax des Tages2.50 K
Errechnete Tagesmitteltemperatur1.47813 °C
Gesamt - Niederschlag des Tages (in flüssiger Form)0.00 Liter / m²
Luftdruck (Maximum / Höchstwert) und Zeitpunkt der Messung23:45:00 Uhr1015.70 hPa
Luftdruck (Minimum / Tiefstwert) und Zeitpunkt der Messung17:00:00 Uhr1010.60 hPa
Errechneter Absolutwert der Luftdruckschwankungen des Tages5.10 hPa
Höchste gemessene Windgeschwindigkeit und Uhrzeit der Messung13:15:00 Uhr17.28 km/h
Errechnete Windhäufigkeit in Relation zu den Messwerten des Tages34.37500 %
Niedrigste Windkühle (Windchill) und Zeitpunkt der Messung02:30:00 Uhr-2.80 °C
Taupunkt (Maximum / Höchstwert) und Uhrzeit der Messung00:00:00 Uhr0.90 °C
Taupunkt (Minimum / Tiefstwert) und Uhrzeit der Messung20:45:00-1.00 °C
Anzahl der automatisch eingelesenen Messwerte 96

Detaillierte Wetter- und Klima- Messwerte für den 20.12.2014 in Holzhau im Erzgebirge (630m ü.NN)
ZeitTemperaturLuftdruckRel. LuftfeuchteWindWindrichtungWindchillTaupunktNiederschlag l/m²
23:45:000.20 °C1015.70 hPa94.00 %-0.60 °C 
23:30:000.20 °C1015.60 hPa94.00 %-0.60 °C 
23:15:000.20 °C1015.40 hPa94.00 %-0.60 °C 
23:00:000.30 °C1014.60 hPa93.00 %-0.70 °C 
22:45:000.40 °C1014.00 hPa93.00 %-0.60 °C 
22:30:000.30 °C1013.60 hPa93.00 %-0.70 °C 
22:15:000.20 °C1013.50 hPa93.00 %-0.80 °C 
22:00:000.30 °C1013.30 hPa93.00 %-0.70 °C 
21:45:000.20 °C1013.00 hPa93.00 %-0.80 °C 
21:30:000.20 °C1013.40 hPa93.00 %-0.80 °C 
21:15:000.20 °C1013.20 hPa93.00 %-0.80 °C 
21:00:000.20 °C1013.30 hPa93.00 %-0.80 °C 
20:45:000.10 °C1013.20 hPa92.00 %-1.00 °C 
20:30:000.10 °C1013.20 hPa92.00 %-1.00 °C 
20:15:000.10 °C1013.00 hPa92.00 %-1.00 °C 
20:00:000.10 °C1012.90 hPa92.00 %-1.00 °C 
19:45:000.30 °C1012.70 hPa92.00 %-0.80 °C 
19:30:000.40 °C1012.20 hPa91.00 %-0.90 °C 
19:15:001.00 °C1011.50 hPa90.00 %-0.50 °C 
19:00:001.40 °C1011.30 hPa90.00 %7.56 km/hW-1.00 °C-0.10 °C 
18:45:001.50 °C1011.20 hPa90.00 %0.00 °C 
18:30:001.50 °C1011.10 hPa89.00 %-0.10 °C 
18:15:001.90 °C1011.30 hPa87.00 %0.00 °C 
18:00:002.10 °C1011.10 hPa85.00 %-0.20 °C 
17:45:002.30 °C1011.00 hPa84.00 %10.08 km/hWNW-0.60 °C-0.10 °C 
17:30:002.40 °C1010.80 hPa82.00 %7.20 km/hSW0.30 °C-0.40 °C 
17:15:002.40 °C1010.80 hPa82.00 %-0.40 °C 
17:00:002.40 °C1010.60 hPa82.00 %-0.40 °C 
16:45:002.30 °C1010.70 hPa83.00 %-0.30 °C 
16:30:002.30 °C1010.70 hPa82.00 %15.48 km/hSW-1.70 °C-0.40 °C 
16:15:002.30 °C1010.80 hPa81.00 %-0.60 °C 
16:00:002.30 °C1010.90 hPa81.00 %6.12 km/hW0.60 °C-0.60 °C 
15:45:002.30 °C1011.20 hPa81.00 %-0.60 °C 
15:30:002.20 °C1011.20 hPa81.00 %4.32 km/hWSW2.20 °C-0.70 °C 
15:15:002.20 °C1011.30 hPa80.00 %-0.90 °C 
15:00:002.30 °C1011.40 hPa80.00 %-0.80 °C 
14:45:002.20 °C1011.70 hPa80.00 %-0.90 °C 
14:30:002.30 °C1011.70 hPa81.00 %5.40 km/hSSW0.90 °C-0.60 °C 
14:15:002.30 °C1012.10 hPa81.00 %9.72 km/hWSW-0.50 °C-0.60 °C 
14:00:002.30 °C1012.00 hPa81.00 %-0.60 °C 
13:45:002.20 °C1012.40 hPa81.00 %7.20 km/hSSW0.10 °C-0.70 °C 
13:30:002.30 °C1012.70 hPa80.00 %4.68 km/hWNW2.30 °C-0.80 °C 
13:15:002.40 °C1012.50 hPa80.00 %17.28 km/hSW-1.80 °C-0.70 °C 
13:00:002.40 °C1012.70 hPa80.00 %14.40 km/hSW-1.40 °C-0.70 °C 
12:45:002.40 °C1013.10 hPa81.00 %14.76 km/hW-1.40 °C-0.50 °C 
12:30:002.50 °C1013.30 hPa80.00 %10.44 km/hWNW-0.40 °C-0.60 °C 
12:15:002.60 °C1013.50 hPa81.00 %7.56 km/hNNW0.40 °C-0.30 °C 
12:00:002.50 °C1013.60 hPa81.00 %-0.40 °C 
11:45:002.40 °C1013.80 hPa81.00 %-0.50 °C 
11:30:002.30 °C1014.40 hPa81.00 %4.68 km/hW2.30 °C-0.60 °C 
11:15:002.20 °C1014.50 hPa82.00 %-0.50 °C 
11:00:002.20 °C1014.60 hPa82.00 %-0.50 °C 
10:45:002.10 °C1015.00 hPa83.00 %3.96 km/hNW2.10 °C-0.50 °C 
10:30:002.10 °C1015.10 hPa82.00 %-0.60 °C 
10:15:002.10 °C1015.10 hPa83.00 %5.40 km/hW0.60 °C-0.50 °C 
10:00:002.00 °C1014.90 hPa83.00 %10.44 km/hW-1.00 °C-0.60 °C 
09:45:002.10 °C1014.90 hPa83.00 %14.40 km/hNW-1.70 °C-0.50 °C 
09:30:002.10 °C1014.60 hPa83.00 %-0.50 °C 
09:15:001.90 °C1014.70 hPa84.00 %7.56 km/hWSW-0.40 °C-0.50 °C 
09:00:001.90 °C1014.50 hPa84.00 %9.00 km/hW-0.80 °C-0.50 °C 
08:45:001.80 °C1014.50 hPa85.00 %-0.40 °C 
08:30:001.80 °C1014.50 hPa85.00 %-0.40 °C 
08:15:001.60 °C1014.50 hPa85.00 %5.04 km/hWSW0.20 °C-0.60 °C 
08:00:001.60 °C1014.50 hPa85.00 %6.12 km/hWSW-0.20 °C-0.60 °C 
07:45:001.60 °C1014.50 hPa84.00 %9.00 km/hNNW-1.10 °C-0.80 °C 
07:30:001.60 °C1014.50 hPa84.00 %-0.80 °C 
07:15:001.60 °C1014.60 hPa85.00 %-0.60 °C 
07:00:001.40 °C1014.50 hPa85.00 %-0.80 °C 
06:45:001.40 °C1014.40 hPa85.00 %-0.80 °C 
06:30:001.40 °C1014.40 hPa85.00 %-0.80 °C 
06:15:001.50 °C1014.40 hPa85.00 %11.16 km/hWNW-1.80 °C-0.70 °C 
06:00:001.50 °C1014.50 hPa85.00 %-0.70 °C 
05:45:001.30 °C1014.40 hPa87.00 %-0.60 °C 
05:30:001.00 °C1014.40 hPa87.00 %-0.90 °C 
05:15:000.90 °C1014.40 hPa88.00 %7.92 km/hWSW-1.70 °C-0.90 °C 
05:00:000.90 °C1014.40 hPa88.00 %-0.90 °C 
04:45:000.90 °C1014.40 hPa89.00 %5.40 km/hNW-0.70 °C-0.70 °C 
04:30:000.90 °C1014.30 hPa89.00 %-0.70 °C 
04:15:001.00 °C1014.30 hPa89.00 %-0.60 °C 
04:00:000.90 °C1014.20 hPa89.00 %-0.70 °C 
03:45:000.80 °C1014.20 hPa89.00 %4.32 km/hWSW0.80 °C-0.80 °C 
03:30:000.80 °C1013.80 hPa89.00 %-0.80 °C 
03:15:000.90 °C1013.80 hPa90.00 %-0.50 °C 
03:00:000.70 °C1013.90 hPa89.00 %-0.90 °C 
02:45:000.90 °C1013.70 hPa89.00 %-0.70 °C 
02:30:001.10 °C1013.70 hPa89.00 %13.68 km/hNW-2.80 °C-0.50 °C 
02:15:001.40 °C1013.30 hPa90.00 %1.08 km/hWNW1.40 °C-0.10 °C 
02:00:001.60 °C1013.10 hPa90.00 %0.10 °C 
01:45:001.60 °C1013.00 hPa90.00 %0.10 °C 
01:30:001.50 °C1013.20 hPa91.00 %6.84 km/hW-0.60 °C0.20 °C 
01:15:001.50 °C1013.10 hPa92.00 %0.30 °C 
01:00:001.40 °C1013.10 hPa92.00 %0.20 °C 
00:45:001.10 °C1013.00 hPa91.00 %-0.20 °C 
00:30:001.30 °C1013.10 hPa91.00 %0.00 °C 
00:15:001.60 °C1013.00 hPa91.00 %0.30 °C 
00:00:002.20 °C1012.90 hPa91.00 %11.16 km/hNNW-1.00 °C0.90 °C 

Permanenter Link zu dieser Seite: Wetter im Erzgebirge am 20.12.2014
Performance-Info: Die Erstellung der Seite / Statistik(en) / Tabelle(n) erforderte 5 Datenbankserver-Abfrage(n) und dauerte 102 Millisekunden. (Dieser Messwert ist von der Gesamt-Auslastung des Servers abhängig.)
Erzgebirge - Wetter | Erzgebirge - Wetter (Mobilgeräte) | Komplette Klimadatenbank